Time;durP1;ratioP1;P1;durP2;ratioP2;P2;SDS_P1;SDS_P2;PMS_P1;PMS_P2;Temp;Humidity;BMP_temperature;BMP_pressure;BME280_temperature;BME280_humidity;BME280_pressure;Samples;Min_cycle;Max_cycle;Signal;HPM_P1;HPM_P2
2022/03/26 00:00:26;;;;;;;150.90;97.00;;;;;;;0.71;52.32;98948.35;106283;1274;22683;-79
2022/03/26 00:03:14;;;;;;;152.50;98.80;;;;;;;0.71;52.09;98944.30;106142;1271;25280;-80
2022/03/26 00:05:45;;;;;;;149.90;94.20;;;;;;;0.69;52.16;98940.92;106538;1271;22686;-79
2022/03/26 00:08:16;;;;;;;159.20;104.40;;;;;;;0.75;52.15;98942.69;106275;1271;22544;-78
2022/03/26 00:10:45;;;;;;;152.30;96.70;;;;;;;0.75;52.63;98943.39;106166;1271;22852;-77
2022/03/26 00:13:13;;;;;;;148.40;94.80;;;;;;;0.74;52.91;98941.48;105942;1271;22714;-78
2022/03/26 00:15:42;;;;;;;151.00;99.70;;;;;;;0.71;53.18;98937.20;105986;1271;25308;-77
2022/03/26 00:18:17;;;;;;;163.10;100.50;;;;;;;0.66;53.19;98937.87;105996;1271;22549;-79
2022/03/26 00:20:45;;;;;;;141.50;98.00;;;;;;;0.62;53.26;98936.45;106273;1271;22552;-77
2022/03/26 00:23:14;;;;;;;134.30;93.40;;;;;;;0.60;53.43;98938.05;106323;1271;25440;-77
2022/03/26 00:25:41;;;;;;;132.70;94.40;;;;;;;0.61;53.61;98933.36;106058;1271;22727;-78
2022/03/26 00:28:09;;;;;;;136.30;91.40;;;;;;;0.61;53.55;98935.48;105985;1271;22759;-78
2022/03/26 00:30:37;;;;;;;136.10;93.30;;;;;;;0.55;53.47;98933.05;105818;1271;182227;-77
2022/03/26 00:33:05;;;;;;;138.50;95.30;;;;;;;0.49;53.51;98929.80;105956;1271;22582;-78
2022/03/26 00:35:34;;;;;;;146.70;98.90;;;;;;;0.45;53.69;98933.12;106389;1271;25306;-78
2022/03/26 00:38:02;;;;;;;166.10;108.90;;;;;;;0.43;53.80;98934.27;105960;1271;26663;-77
2022/03/26 00:40:29;;;;;;;153.80;99.90;;;;;;;0.42;53.92;98932.67;105981;1271;24290;-79
2022/03/26 00:42:59;;;;;;;161.20;101.20;;;;;;;0.40;53.86;98932.77;106206;1271;22547;-78
2022/03/26 00:45:29;;;;;;;144.10;96.90;;;;;;;0.39;53.89;98933.45;106063;1271;24215;-77
2022/03/26 00:47:57;;;;;;;155.60;101.50;;;;;;;0.38;54.02;98932.85;106261;1271;25401;-76
2022/03/26 00:50:25;;;;;;;159.40;101.90;;;;;;;0.36;54.17;98930.23;106313;1271;22704;-77
2022/03/26 00:52:53;;;;;;;161.30;104.70;;;;;;;0.34;54.15;98928.93;105946;1271;24086;-78
2022/03/26 00:55:21;;;;;;;167.30;110.90;;;;;;;0.31;54.30;98929.02;105973;1271;22548;-79
2022/03/26 00:57:49;;;;;;;197.80;120.70;;;;;;;0.30;54.34;98928.38;106331;1271;25538;-79
2022/03/26 01:00:18;;;;;;;165.90;110.70;;;;;;;0.30;54.66;98929.85;106007;1271;25375;-79
2022/03/26 01:02:46;;;;;;;173.20;116.90;;;;;;;0.30;54.69;98929.45;106355;1271;25349;-79
2022/03/26 01:05:14;;;;;;;176.20;117.30;;;;;;;0.30;54.90;98929.56;105985;1271;22602;-78
2022/03/26 01:07:41;;;;;;;183.30;117.50;;;;;;;0.28;55.03;98925.28;105990;1271;22659;-79
2022/03/26 01:10:10;;;;;;;172.60;115.50;;;;;;;0.26;55.00;98923.77;106292;1271;22683;-80
2022/03/26 01:12:38;;;;;;;191.00;126.50;;;;;;;0.20;54.94;98919.79;106260;1271;25668;-78
2022/03/26 01:15:06;;;;;;;187.40;120.70;;;;;;;0.21;57.20;98923.02;106324;1271;22769;-79
2022/03/26 01:17:34;;;;;;;181.70;118.60;;;;;;;0.26;55.91;98924.95;106362;1271;22697;-78
2022/03/26 01:20:04;;;;;;;185.00;119.70;;;;;;;0.34;55.67;98923.55;106028;1274;22754;-78
2022/03/26 01:22:31;;;;;;;172.10;115.30;;;;;;;0.40;55.52;98927.86;106142;1271;26568;-77
2022/03/26 01:24:59;;;;;;;214.70;139.70;;;;;;;0.35;55.55;98920.04;106212;1271;26634;-79
2022/03/26 01:27:27;;;;;;;195.20;131.00;;;;;;;0.36;56.53;98921.20;106451;1271;22543;-80
2022/03/26 01:29:55;;;;;;;200.30;136.50;;;;;;;0.44;56.51;98923.00;106483;1271;25245;-78
2022/03/26 01:32:23;;;;;;;236.00;159.00;;;;;;;0.53;56.33;98921.02;106425;1274;22546;-78
2022/03/26 01:34:51;;;;;;;210.10;137.70;;;;;;;0.54;56.02;98923.72;106559;1271;22577;-78
2022/03/26 01:37:19;;;;;;;205.60;136.50;;;;;;;0.54;56.06;98923.79;106219;1271;22540;-77
2022/03/26 01:39:47;;;;;;;220.50;140.80;;;;;;;0.54;56.06;98922.92;106470;1271;22557;-78
2022/03/26 01:42:15;;;;;;;214.00;137.40;;;;;;;0.58;56.68;98925.08;106148;1271;24440;-82
2022/03/26 01:44:43;;;;;;;195.00;128.80;;;;;;;0.57;56.23;98922.15;106053;1271;22578;-78
2022/03/26 01:47:12;;;;;;;208.60;131.50;;;;;;;0.51;56.62;98925.67;106459;1274;24447;-79
2022/03/26 01:49:39;;;;;;;193.80;129.10;;;;;;;0.43;56.28;98924.10;106144;1271;22552;-79
2022/03/26 01:52:09;;;;;;;201.50;130.70;;;;;;;0.35;56.66;98920.73;106162;1271;22605;-79
2022/03/26 01:54:39;;;;;;;189.40;128.10;;;;;;;0.31;56.64;98920.42;106090;1271;22848;-79
2022/03/26 01:57:10;;;;;;;176.90;119.70;;;;;;;0.33;57.18;98915.31;106102;1271;22870;-83
2022/03/26 01:59:40;;;;;;;200.20;125.60;;;;;;;0.34;56.72;98920.66;106652;1271;22552;-78
2022/03/26 02:02:09;;;;;;;186.40;125.30;;;;;;;0.28;56.85;98920.87;106165;1271;22770;-77
2022/03/26 02:04:37;;;;;;;204.90;131.10;;;;;;;0.23;56.94;98922.91;106083;1271;22686;-83
2022/03/26 02:07:05;;;;;;;188.80;126.80;;;;;;;0.22;57.16;98926.77;106261;1271;22648;-83
2022/03/26 02:09:35;;;;;;;189.60;127.00;;;;;;;0.25;57.17;98924.27;106344;1271;25417;-79
2022/03/26 02:12:27;;;;;;;191.70;130.30;;;;;;;0.22;57.16;98923.17;106225;1274;26694;-78
2022/03/26 02:14:57;;;;;;;188.40;127.20;;;;;;;0.16;57.07;98917.52;106056;1271;22645;-82
2022/03/26 02:17:25;;;;;;;180.90;122.10;;;;;;;0.09;57.79;98924.58;106234;1274;24265;-76
2022/03/26 02:19:55;;;;;;;188.30;123.10;;;;;;;0.04;57.64;98923.02;106203;1271;22609;-78
2022/03/26 02:22:25;;;;;;;185.80;120.50;;;;;;;0.04;57.73;98923.31;106167;1271;25331;-77
2022/03/26 02:24:54;;;;;;;177.10;114.80;;;;;;;0.06;57.44;98922.77;106277;1271;24226;-78
2022/03/26 02:27:24;;;;;;;172.30;116.80;;;;;;;0.09;57.64;98923.06;106046;1271;24380;-79
2022/03/26 02:29:53;;;;;;;177.40;121.90;;;;;;;0.14;57.71;98921.23;106279;1271;25510;-79
2022/03/26 02:32:22;;;;;;;184.20;119.80;;;;;;;0.15;57.62;98920.08;106563;1271;25458;-80
2022/03/26 02:34:51;;;;;;;193.90;130.00;;;;;;;0.16;58.19;98917.96;106628;1271;22659;-79
2022/03/26 02:37:31;;;;;;;199.20;130.40;;;;;;;0.25;58.58;98917.36;106150;1271;22649;-80
2022/03/26 02:40:00;;;;;;;194.70;128.20;;;;;;;0.33;59.57;98918.42;106452;1271;23143;-79
2022/03/26 02:42:28;;;;;;;188.30;127.80;;;;;;;0.41;59.75;98923.05;106495;1271;22647;-79
2022/03/26 02:44:56;;;;;;;207.00;136.30;;;;;;;0.43;60.47;98923.33;106362;1271;22691;-80
2022/03/26 02:47:24;;;;;;;202.30;134.10;;;;;;;0.47;59.58;98920.67;106459;1271;26672;-80
2022/03/26 02:49:52;;;;;;;188.00;126.20;;;;;;;0.55;59.47;98921.79;106254;1274;22681;-79
2022/03/26 02:52:22;;;;;;;191.50;126.20;;;;;;;0.60;60.01;98924.70;106268;1271;22676;-79
2022/03/26 02:54:52;;;;;;;189.70;123.60;;;;;;;0.73;61.53;98923.69;106219;1271;23196;-80
2022/03/26 02:57:20;;;;;;;201.40;125.20;;;;;;;0.90;61.10;98919.34;106478;1271;24437;-79
2022/03/26 02:59:48;;;;;;;179.60;117.60;;;;;;;1.05;61.62;98909.79;106459;1271;22615;-79
2022/03/26 03:02:16;;;;;;;203.00;132.90;;;;;;;1.20;61.30;98915.59;106828;1271;25476;-79
2022/03/26 03:04:45;;;;;;;186.40;127.90;;;;;;;1.29;61.36;98912.69;106442;1271;22996;-78
2022/03/26 03:07:13;;;;;;;194.40;126.00;;;;;;;1.28;61.24;98909.33;106245;1274;25586;-80
2022/03/26 03:09:40;;;;;;;181.90;120.20;;;;;;;1.25;60.93;98909.10;106518;1271;22588;-80
2022/03/26 03:12:09;;;;;;;192.30;127.90;;;;;;;1.26;60.61;98906.27;106494;1271;22586;-79
2022/03/26 03:14:37;;;;;;;198.80;130.00;;;;;;;1.27;60.84;98905.21;106532;1271;24397;-78
2022/03/26 03:17:06;;;;;;;179.20;122.10;;;;;;;1.25;60.16;98903.23;106176;1271;25251;-80
2022/03/26 03:19:34;;;;;;;190.30;121.90;;;;;;;1.21;59.85;98902.81;106352;1271;24528;-79
2022/03/26 03:22:03;;;;;;;182.70;123.50;;;;;;;1.08;60.22;98898.80;106542;1271;25461;-79
2022/03/26 03:24:31;;;;;;;180.20;117.30;;;;;;;0.99;60.42;98902.85;106375;1271;25204;-79
2022/03/26 03:26:59;;;;;;;168.70;113.90;;;;;;;0.90;60.34;98899.79;106375;1272;22610;-79
2022/03/26 03:29:27;;;;;;;178.90;118.80;;;;;;;0.89;61.56;98898.02;106563;1271;22560;-79
2022/03/26 03:31:55;;;;;;;185.90;121.10;;;;;;;0.93;60.91;98899.16;106374;1271;24323;-80
2022/03/26 03:34:23;;;;;;;179.40;120.00;;;;;;;1.01;60.38;98899.15;106562;1271;26734;-80
2022/03/26 03:36:51;;;;;;;186.70;122.00;;;;;;;1.10;61.05;98895.11;106147;1271;22614;-78
2022/03/26 03:39:19;;;;;;;180.00;122.90;;;;;;;1.11;60.57;98895.80;106143;1271;22613;-79
2022/03/26 03:41:47;;;;;;;190.40;130.60;;;;;;;1.10;60.44;98891.77;106113;1271;22783;-79
2022/03/26 03:44:16;;;;;;;201.60;131.10;;;;;;;1.13;60.40;98893.61;106376;1271;22662;-77
2022/03/26 03:46:44;;;;;;;200.70;130.50;;;;;;;1.12;59.95;98893.50;106333;1271;25248;-78
2022/03/26 03:49:13;;;;;;;192.50;127.50;;;;;;;1.07;59.92;98894.10;106327;1271;23505;-78
2022/03/26 03:51:40;;;;;;;182.60;119.30;;;;;;;1.04;60.43;98891.09;106535;1271;22652;-78
2022/03/26 03:54:08;;;;;;;180.70;116.90;;;;;;;0.99;59.96;98889.69;106342;1271;26632;-79
2022/03/26 03:56:36;;;;;;;175.80;118.50;;;;;;;1.00;60.89;98885.33;106585;1271;25415;-79
2022/03/26 03:59:04;;;;;;;190.20;122.40;;;;;;;1.04;60.89;98879.86;106176;1271;24305;-79
2022/03/26 04:01:33;;;;;;;186.80;125.40;;;;;;;1.07;61.24;98877.48;106305;1271;23636;-85
2022/03/26 04:04:02;;;;;;;186.70;125.40;;;;;;;1.13;61.35;98884.23;106400;1271;22571;-79
2022/03/26 04:06:30;;;;;;;184.00;122.10;;;;;;;1.17;60.74;98884.93;106163;1271;25414;-79
2022/03/26 04:08:58;;;;;;;183.30;118.30;;;;;;;1.14;60.22;98886.80;106072;1271;22541;-79
2022/03/26 04:11:26;;;;;;;167.20;114.60;;;;;;;0.97;59.71;98886.84;106202;1271;24363;-80
2022/03/26 04:13:54;;;;;;;184.80;127.60;;;;;;;0.76;59.58;98888.66;106067;1271;24319;-79
2022/03/26 04:16:23;;;;;;;190.70;123.20;;;;;;;0.59;59.87;98888.48;106340;1271;25942;-78
2022/03/26 04:18:51;;;;;;;177.80;121.00;;;;;;;0.46;60.80;98884.57;106234;1271;22544;-78
2022/03/26 04:21:20;;;;;;;174.80;118.30;;;;;;;0.39;61.02;98885.24;106510;1271;22848;-79
2022/03/26 04:23:48;;;;;;;181.20;121.00;;;;;;;0.32;60.67;98885.52;106506;1271;22788;-78
2022/03/26 04:26:16;;;;;;;183.80;115.90;;;;;;;0.29;61.39;98886.86;106234;1271;25314;-79
2022/03/26 04:28:43;;;;;;;185.60;125.00;;;;;;;0.35;61.67;98886.10;106471;1271;22553;-79
2022/03/26 04:31:11;;;;;;;176.10;117.00;;;;;;;0.41;62.01;98883.48;106530;1271;24073;-78
2022/03/26 04:33:39;;;;;;;178.90;120.00;;;;;;;0.53;62.14;98885.44;106476;1271;22544;-76
2022/03/26 04:36:07;;;;;;;176.80;117.20;;;;;;;0.65;62.06;98886.00;106526;1271;24523;-79
2022/03/26 04:38:36;;;;;;;184.10;121.90;;;;;;;0.73;61.80;98885.89;106282;1271;24806;-80
2022/03/26 04:41:04;;;;;;;214.60;144.90;;;;;;;0.77;61.77;98883.70;106510;1271;25353;-80
2022/03/26 04:43:32;;;;;;;190.10;129.20;;;;;;;0.83;62.12;98887.77;106437;1271;22538;-85
2022/03/26 04:45:59;;;;;;;210.30;139.60;;;;;;;0.90;62.03;98884.55;106518;1271;22568;-78
2022/03/26 04:48:27;;;;;;;214.50;141.30;;;;;;;0.95;61.74;98884.28;106246;1271;25513;-79
2022/03/26 04:50:55;;;;;;;376.90;222.10;;;;;;;0.98;61.47;98879.41;106245;1271;23029;-80
2022/03/26 04:53:23;;;;;;;369.10;216.70;;;;;;;1.01;61.22;98874.38;106213;1271;22547;-78
2022/03/26 04:55:51;;;;;;;303.30;180.40;;;;;;;1.08;61.06;98877.20;106231;1271;25309;-79
2022/03/26 04:58:19;;;;;;;227.20;144.30;;;;;;;1.10;61.18;98877.76;106221;1271;22621;-79
2022/03/26 05:00:47;;;;;;;227.80;142.70;;;;;;;1.12;61.30;98877.49;106193;1271;22544;-79
2022/03/26 05:03:15;;;;;;;181.90;119.30;;;;;;;1.15;61.31;98882.22;106492;1271;25401;-79
2022/03/26 05:05:43;;;;;;;170.90;114.10;;;;;;;1.12;61.53;98879.73;106267;1270;24437;-80
2022/03/26 05:08:11;;;;;;;159.60;109.10;;;;;;;1.13;61.70;98874.71;106246;1271;23192;-78
2022/03/26 05:10:39;;;;;;;175.40;112.70;;;;;;;1.18;63.23;98879.96;106069;1271;25451;-78
2022/03/26 05:13:07;;;;;;;167.50;107.60;;;;;;;1.23;62.79;98876.56;106231;1271;25416;-80
2022/03/26 05:15:34;;;;;;;172.60;115.60;;;;;;;1.30;62.34;98871.05;106222;1271;24355;-78
2022/03/26 05:18:03;;;;;;;220.70;127.90;;;;;;;1.34;62.36;98866.58;105977;1271;24805;-79
2022/03/26 05:20:31;;;;;;;193.80;116.70;;;;;;;1.39;62.11;98862.41;106266;1271;22609;-79
2022/03/26 05:23:01;;;;;;;164.60;110.10;;;;;;;1.48;61.93;98867.98;106508;1271;22563;-80
2022/03/26 05:25:29;;;;;;;157.60;102.60;;;;;;;1.59;62.18;98864.92;106491;1271;23995;-79
2022/03/26 05:27:57;;;;;;;146.20;100.70;;;;;;;1.68;62.51;98865.21;106528;1270;24277;-78
2022/03/26 05:30:25;;;;;;;143.70;100.70;;;;;;;1.78;62.35;98871.17;106331;1271;22534;-78
2022/03/26 05:32:53;;;;;;;152.30;106.50;;;;;;;1.87;62.07;98858.95;106533;1271;22857;-79
2022/03/26 05:35:21;;;;;;;157.60;106.60;;;;;;;1.95;62.19;98865.42;106484;1271;22546;-78
2022/03/26 05:37:50;;;;;;;142.70;102.50;;;;;;;2.02;61.98;98862.94;106502;1271;25580;-78
2022/03/26 05:40:20;;;;;;;151.90;107.00;;;;;;;2.11;61.92;98868.05;106231;1271;24387;-78
2022/03/26 05:42:50;;;;;;;150.40;105.20;;;;;;;2.19;61.81;98868.70;106588;1271;22556;-80
2022/03/26 05:45:19;;;;;;;139.30;100.90;;;;;;;2.28;62.04;98867.68;106498;1271;24061;-78
2022/03/26 05:47:51;;;;;;;143.90;95.90;;;;;;;2.34;62.15;98868.51;106275;1271;23782;-79
2022/03/26 05:50:19;;;;;;;137.50;93.00;;;;;;;2.43;62.14;98866.90;106670;1271;22605;-77
2022/03/26 05:52:48;;;;;;;120.70;92.20;;;;;;;2.53;62.02;98862.60;107123;1271;22657;-78
2022/03/26 05:55:16;;;;;;;124.70;90.20;;;;;;;2.64;62.07;98862.23;106617;1271;22578;-78
2022/03/26 05:57:44;;;;;;;129.30;92.20;;;;;;;2.74;62.40;98861.70;106202;1271;22554;-79
2022/03/26 06:00:15;;;;;;;120.40;92.00;;;;;;;2.83;62.06;98859.91;106244;1271;22534;-79
2022/03/26 06:02:44;;;;;;;117.20;86.40;;;;;;;2.91;62.05;98858.23;106281;1274;22531;-78
2022/03/26 06:05:12;;;;;;;117.70;88.30;;;;;;;3.01;61.90;98860.08;106313;1271;22570;-78
2022/03/26 06:07:40;;;;;;;114.10;87.70;;;;;;;3.09;61.62;98861.11;106255;1271;22647;-78
2022/03/26 06:10:08;;;;;;;119.70;88.10;;;;;;;3.19;61.58;98861.99;106276;1271;25595;-78
2022/03/26 06:12:43;;;;;;;109.90;89.00;;;;;;;3.27;61.48;98865.56;106146;1271;22620;-78
2022/03/26 06:15:12;;;;;;;113.30;89.40;;;;;;;3.34;61.44;98865.37;106561;1271;22527;-80
2022/03/26 06:18:02;;;;;;;108.10;85.70;;;;;;;3.44;61.73;98867.20;106210;1271;22884;-81
2022/03/26 06:20:30;;;;;;;122.50;90.90;;;;;;;3.51;61.43;98862.65;106543;1271;22687;-81
2022/03/26 06:22:58;;;;;;;113.00;84.40;;;;;;;3.61;61.32;98863.80;106565;1270;24263;-78
2022/03/26 06:25:32;;;;;;;127.70;88.60;;;;;;;3.73;61.12;98871.59;106299;1271;22608;-78
2022/03/26 06:28:00;;;;;;;112.50;87.70;;;;;;;3.82;61.10;98871.88;106397;1271;22540;-77
2022/03/26 06:30:28;;;;;;;115.40;84.50;;;;;;;3.93;61.03;98873.98;106124;1271;25695;-79
2022/03/26 06:32:56;;;;;;;95.50;81.40;;;;;;;4.04;60.81;98869.48;106246;1271;25474;-79
2022/03/26 06:35:24;;;;;;;95.50;80.50;;;;;;;4.15;60.83;98867.81;106476;1270;24300;-81
2022/03/26 06:37:53;;;;;;;98.40;80.30;;;;;;;4.27;60.27;98874.59;106613;1271;22534;-80
2022/03/26 06:40:21;;;;;;;79.70;71.40;;;;;;;4.40;60.39;98876.46;107275;1271;24201;-80
2022/03/26 06:42:49;;;;;;;80.80;71.90;;;;;;;4.49;60.03;98872.02;106635;1271;26621;-80
2022/03/26 06:45:17;;;;;;;81.80;72.10;;;;;;;4.64;60.06;98872.31;107003;1271;24262;-80
2022/03/26 06:47:45;;;;;;;78.50;70.10;;;;;;;4.75;59.76;98878.36;106477;1271;22739;-79
2022/03/26 06:50:13;;;;;;;79.10;68.10;;;;;;;4.87;59.49;98878.74;106025;1274;24405;-78
2022/03/26 06:52:41;;;;;;;91.60;72.90;;;;;;;4.98;59.71;98884.42;106368;1271;22666;-79
2022/03/26 06:55:09;;;;;;;78.70;70.10;;;;;;;5.08;59.46;98889.54;106587;1271;23225;-79
2022/03/26 06:57:38;;;;;;;90.60;73.00;;;;;;;5.19;58.63;98890.63;106542;1271;25360;-79
2022/03/26 07:00:06;;;;;;;82.10;73.70;;;;;;;5.29;58.45;98891.08;106547;1271;22544;-79
2022/03/26 07:02:35;;;;;;;76.30;68.40;;;;;;;5.39;58.70;98889.87;106510;1271;25391;-80
2022/03/26 07:05:04;;;;;;;82.40;70.80;;;;;;;5.52;58.83;98889.08;106514;1271;25362;-79
2022/03/26 07:07:32;;;;;;;79.50;71.30;;;;;;;5.65;58.33;98887.11;106514;1271;23153;-79
2022/03/26 07:10:00;;;;;;;77.40;68.70;;;;;;;5.77;58.03;98888.96;106521;1271;24255;-78
2022/03/26 07:12:28;;;;;;;79.80;71.30;;;;;;;5.89;58.06;98878.52;106527;1268;25504;-79
2022/03/26 07:14:57;;;;;;;82.40;70.40;;;;;;;6.01;57.71;98877.39;106323;1271;22904;-79
2022/03/26 07:17:24;;;;;;;74.40;66.80;;;;;;;6.11;57.31;98876.89;106453;1271;24377;-79
2022/03/26 07:19:52;;;;;;;74.70;67.10;;;;;;;6.23;57.89;98878.55;106464;1271;25479;-80
2022/03/26 07:22:20;;;;;;;74.80;67.00;;;;;;;6.36;57.71;98873.29;106255;1271;25522;-77
2022/03/26 07:24:48;;;;;;;72.90;64.90;;;;;;;6.51;57.47;98877.77;106341;1270;22544;-80
2022/03/26 07:27:16;;;;;;;75.90;66.90;;;;;;;6.63;57.03;98877.96;106817;1271;22850;-80
2022/03/26 07:29:43;;;;;;;74.90;66.20;;;;;;;6.74;57.00;98876.91;106431;1271;22548;-79
2022/03/26 07:32:11;;;;;;;75.20;66.30;;;;;;;6.86;56.96;98877.92;106544;1271;22728;-80
2022/03/26 07:34:39;;;;;;;70.70;61.70;;;;;;;6.99;56.70;98880.06;106512;1271;25325;-80
2022/03/26 07:37:07;;;;;;;70.90;61.80;;;;;;;7.14;55.80;98886.11;106303;1271;23859;-80
2022/03/26 07:39:35;;;;;;;71.80;63.90;;;;;;;7.25;55.82;98876.90;106524;1271;22539;-80
2022/03/26 07:42:03;;;;;;;75.10;65.80;;;;;;;7.35;55.41;98872.77;106480;1271;22713;-78
2022/03/26 07:44:31;;;;;;;66.60;59.60;;;;;;;7.45;55.65;98875.97;106181;1271;25163;-78
2022/03/26 07:46:59;;;;;;;72.10;64.40;;;;;;;7.56;55.60;98872.04;106212;1271;22549;-80
2022/03/26 07:49:27;;;;;;;70.10;61.80;;;;;;;7.68;55.57;98875.26;106079;1271;26634;-80
2022/03/26 07:51:55;;;;;;;76.00;63.00;;;;;;;7.79;55.63;98867.56;106279;1271;24333;-79
2022/03/26 07:54:23;;;;;;;65.20;58.10;;;;;;;7.94;55.49;98867.84;106273;1271;24228;-79
2022/03/26 07:56:51;;;;;;;67.30;60.40;;;;;;;8.06;55.24;98871.89;106322;1271;26561;-79
2022/03/26 07:59:19;;;;;;;69.30;60.60;;;;;;;8.17;54.82;98870.36;106458;1271;22718;-79
2022/03/26 08:01:47;;;;;;;71.60;57.80;;;;;;;8.29;55.28;98868.33;106479;1271;22780;-79
2022/03/26 08:04:15;;;;;;;64.00;57.50;;;;;;;8.43;55.02;98871.92;106435;1271;22650;-79
2022/03/26 08:06:43;;;;;;;67.40;60.10;;;;;;;8.57;54.33;98865.77;106422;1271;24253;-80
2022/03/26 08:09:11;;;;;;;62.10;56.00;;;;;;;8.69;54.92;98860.29;106488;1271;22578;-80
2022/03/26 08:11:39;;;;;;;68.50;55.30;;;;;;;8.85;54.40;98863.84;106483;1271;25502;-79
2022/03/26 08:14:06;;;;;;;58.90;52.40;;;;;;;8.98;54.34;98865.82;106491;1271;22622;-80
2022/03/26 08:16:35;;;;;;;64.30;52.60;;;;;;;9.13;53.85;98860.64;106242;1271;22540;-79
2022/03/26 08:19:03;;;;;;;59.90;53.70;;;;;;;9.26;53.53;98858.48;106335;1271;25279;-80
2022/03/26 08:21:32;;;;;;;57.50;51.60;;;;;;;9.35;53.41;98848.90;106483;1271;25315;-81
2022/03/26 08:24:00;;;;;;;58.80;52.60;;;;;;;9.45;53.54;98842.52;106502;1271;22620;-80
2022/03/26 08:26:29;;;;;;;56.90;49.50;;;;;;;9.58;53.09;98843.27;106513;1271;22543;-81
2022/03/26 08:29:00;;;;;;;56.10;50.30;;;;;;;9.72;53.54;98835.64;106295;1271;24985;-80
2022/03/26 08:31:30;;;;;;;51.70;46.40;;;;;;;9.88;52.43;98837.45;106280;1274;24309;-79
2022/03/26 08:33:59;;;;;;;54.60;49.10;;;;;;;10.01;52.38;98841.48;106537;1270;25435;-80
2022/03/26 08:36:28;;;;;;;54.80;49.40;;;;;;;10.11;52.41;98845.12;106468;1271;23463;-80
2022/03/26 08:38:56;;;;;;;57.00;49.30;;;;;;;10.20;52.81;98838.09;106363;1271;24233;-80
2022/03/26 08:41:24;;;;;;;52.90;47.20;;;;;;;10.31;52.39;98836.21;106474;1271;23991;-78
2022/03/26 08:43:52;;;;;;;53.50;48.10;;;;;;;10.42;51.63;98833.33;106455;1271;25394;-79
2022/03/26 08:46:21;;;;;;;58.80;48.40;;;;;;;10.50;52.07;98825.92;106471;1271;22630;-79
2022/03/26 08:48:50;;;;;;;50.10;45.20;;;;;;;10.60;52.07;98827.11;106479;1271;22567;-79
2022/03/26 08:51:18;;;;;;;50.60;44.90;;;;;;;10.73;51.44;98820.21;106520;1271;26708;-79
2022/03/26 08:53:46;;;;;;;51.50;46.00;;;;;;;10.84;51.50;98819.63;106474;1271;22623;-79
2022/03/26 08:56:14;;;;;;;55.90;47.60;;;;;;;10.97;51.29;98818.31;106288;1271;24349;-79
2022/03/26 08:58:42;;;;;;;50.50;45.10;;;;;;;11.08;51.28;98823.64;106302;1271;24233;-80
2022/03/26 09:01:11;;;;;;;51.30;45.70;;;;;;;11.17;51.06;98819.11;106454;1271;22555;-80
2022/03/26 09:03:40;;;;;;;50.40;45.20;;;;;;;11.26;51.40;98809.34;106448;1271;22688;-80
2022/03/26 09:06:10;;;;;;;51.20;45.80;;;;;;;11.42;51.02;98810.68;106487;1271;24093;-80
2022/03/26 09:08:38;;;;;;;51.50;46.10;;;;;;;11.55;49.95;98810.89;106535;1269;22561;-80
2022/03/26 09:11:06;;;;;;;47.30;42.70;;;;;;;11.62;49.85;98814.79;106301;1274;22525;-80
2022/03/26 09:13:34;;;;;;;52.10;46.60;;;;;;;11.67;49.84;98814.96;106556;1271;25434;-77
2022/03/26 09:16:03;;;;;;;51.20;43.40;;;;;;;11.73;50.15;98802.80;106533;1271;22537;-79
2022/03/26 09:18:30;;;;;;;50.60;45.80;;;;;;;11.85;49.93;98813.14;106504;1271;25369;-80
2022/03/26 09:20:58;;;;;;;44.50;39.70;;;;;;;11.97;49.61;98798.27;106543;1271;22563;-80
2022/03/26 09:23:32;;;;;;;53.90;43.60;;;;;;;12.09;49.52;98798.05;106275;1271;22814;-80
2022/03/26 09:26:04;;;;;;;49.20;43.00;;;;;;;12.21;49.45;98801.91;106680;1271;22559;-80
2022/03/26 09:28:32;;;;;;;43.30;38.90;;;;;;;12.28;48.33;98798.19;106677;1271;22599;-79
2022/03/26 09:31:00;;;;;;;50.20;41.70;;;;;;;12.35;48.54;98785.33;106558;1271;22827;-79
2022/03/26 09:33:28;;;;;;;53.00;41.30;;;;;;;12.40;48.21;98779.11;106699;1271;22581;-80
2022/03/26 09:35:56;;;;;;;51.10;41.90;;;;;;;12.50;48.98;98780.89;106643;1271;22713;-80
2022/03/26 09:38:26;;;;;;;45.00;38.40;;;;;;;12.62;48.27;98777.98;106692;1271;22742;-80
2022/03/26 09:40:54;;;;;;;48.80;39.50;;;;;;;12.71;48.07;98781.48;106640;1271;23978;-79
2022/03/26 09:43:23;;;;;;;42.80;37.00;;;;;;;12.77;47.22;98780.50;106625;1271;24278;-80
2022/03/26 09:45:52;;;;;;;44.80;39.90;;;;;;;12.81;47.91;98773.63;106297;1274;25512;-79
2022/03/26 09:48:20;;;;;;;44.40;38.20;;;;;;;12.88;47.67;98770.97;106406;1271;22689;-78
2022/03/26 09:50:47;;;;;;;67.60;43.10;;;;;;;12.98;47.78;98769.47;106444;1270;22553;-79
2022/03/26 09:53:16;;;;;;;49.50;40.20;;;;;;;13.08;46.77;98760.23;106416;1271;22543;-79
2022/03/26 09:55:44;;;;;;;46.10;38.50;;;;;;;13.15;46.87;98762.67;106391;1271;25659;-79
2022/03/26 09:58:12;;;;;;;44.00;39.50;;;;;;;13.27;47.36;98759.05;106247;1273;25370;-79
2022/03/26 10:00:40;;;;;;;29.70;26.70;;;;;;;13.41;46.68;98760.14;106425;1271;24436;-79
2022/03/26 10:03:08;;;;;;;41.40;33.90;;;;;;;13.53;45.60;98750.46;106407;1271;22563;-78
2022/03/26 10:05:37;;;;;;;37.50;32.80;;;;;;;13.66;45.85;98747.73;106052;1271;25290;-77
2022/03/26 10:08:22;;;;;;;32.10;27.70;;;;;;;13.77;44.46;98749.23;106503;1271;24246;-77
2022/03/26 10:10:51;;;;;;;34.70;26.10;;;;;;;13.84;43.84;98751.98;106159;1271;22563;-79
2022/03/26 10:13:40;;;;;;;31.70;22.20;;;;;;;13.85;43.43;98754.83;106554;1271;24304;-78
2022/03/26 10:16:10;;;;;;;28.70;21.20;;;;;;;13.73;41.67;98775.67;106561;1271;22559;-79
2022/03/26 10:18:44;;;;;;;25.80;22.00;;;;;;;13.56;42.37;98757.39;106567;1271;22767;-79
2022/03/26 10:21:15;;;;;;;26.20;21.30;;;;;;;13.48;42.34;98758.50;106574;1271;24102;-79
2022/03/26 10:23:49;;;;;;;26.90;21.70;;;;;;;13.45;42.30;98762.30;106539;1270;23940;-78
2022/03/26 10:26:17;;;;;;;33.70;23.30;;;;;;;13.51;42.80;98745.73;106500;1271;24423;-78
2022/03/26 10:28:58;;;;;;;35.10;21.50;;;;;;;13.60;42.06;98747.25;106520;1268;22565;-78
2022/03/26 10:34:21;;;;;;;36.50;22.70;;;;;;;13.70;40.92;98749.14;106174;1271;22674;-77
2022/03/26 10:37:01;;;;;;;35.30;22.50;;;;;;;13.77;40.57;98751.49;106446;1271;22586;-77
2022/03/26 10:39:30;;;;;;;33.20;23.00;;;;;;;13.83;40.06;98745.00;106292;1273;25975;-78
2022/03/26 10:41:58;;;;;;;30.60;22.20;;;;;;;13.92;40.62;98738.17;106442;1274;23925;-78
2022/03/26 10:44:28;;;;;;;29.10;22.10;;;;;;;14.02;40.36;98730.16;106605;1273;22844;-77
2022/03/26 10:46:59;;;;;;;30.50;22.90;;;;;;;14.16;40.67;98725.67;106580;1274;22551;-77
2022/03/26 10:49:29;;;;;;;32.10;21.80;;;;;;;14.28;40.91;98714.75;106598;1271;24263;-76
2022/03/26 10:52:14;;;;;;;26.70;22.80;;;;;;;14.42;40.19;98720.30;106574;1271;25324;-77
2022/03/26 10:54:42;;;;;;;;;;;;;;;14.41;39.56;98712.64;106632;1271;25070;-77
2022/03/26 10:57:10;;;;;;;40.50;23.00;;;;;;;14.34;38.97;98735.34;106497;1271;22691;-77
2022/03/26 10:59:38;;;;;;;39.60;24.10;;;;;;;14.29;38.68;98712.98;106077;1271;22616;-76
2022/03/26 11:02:06;;;;;;;27.50;22.90;;;;;;;14.35;39.34;98718.57;106538;1271;22584;-78
2022/03/26 11:04:34;;;;;;;26.70;21.50;;;;;;;14.39;38.89;98724.02;106555;1271;24425;-78
2022/03/26 11:07:03;;;;;;;27.10;21.60;;;;;;;14.33;38.43;98738.45;106604;1271;23928;-78
2022/03/26 11:09:31;;;;;;;31.40;24.70;;;;;;;14.21;38.91;98711.75;106532;1269;24090;-78
2022/03/26 11:12:01;;;;;;;29.20;23.70;;;;;;;14.22;39.40;98704.73;106515;1271;25674;-79
2022/03/26 11:14:38;;;;;;;27.30;23.00;;;;;;;14.40;39.36;98705.60;106605;1271;22538;-83
2022/03/26 11:17:14;;;;;;;30.20;26.40;;;;;;;14.58;38.74;98715.67;106505;1271;22677;-80